Time;durP1;ratioP1;P1;durP2;ratioP2;P2;SDS_P1;SDS_P2;PMS_P1;PMS_P2;Temp;Humidity;BMP_temperature;BMP_pressure;BME280_temperature;BME280_humidity;BME280_pressure;Samples;Min_cycle;Max_cycle;Signal;HPM_P1;HPM_P2
2022/11/23 00:00:56;;;;;;;1.95;0.47;;;24.10;45.00;;;;;;5055656;28;20199;-53
2022/11/23 00:03:26;;;;;;;1.15;0.60;;;24.10;45.00;;;;;;5068392;28;20603;-51
2022/11/23 00:05:57;;;;;;;1.17;0.52;;;24.10;44.80;;;;;;5052731;28;20196;-57
2022/11/23 00:08:28;;;;;;;1.00;0.60;;;24.10;44.60;;;;;;5070856;28;20197;-54
2022/11/23 00:11:03;;;;;;;0.85;0.43;;;24.10;44.40;;;;;;5072244;28;20203;-49
2022/11/23 00:13:34;;;;;;;0.50;0.30;;;24.10;44.10;;;;;;5071158;28;20222;-56
2022/11/23 00:16:07;;;;;;;2.42;0.60;;;24.20;44.00;;;;;;5072071;28;20724;-48
2022/11/23 00:18:39;;;;;;;1.13;0.43;;;24.20;43.80;;;;;;5071477;28;20206;-54
2022/11/23 00:21:10;;;;;;;0.60;0.55;;;24.20;43.80;;;;;;5066664;28;20199;-53
2022/11/23 00:23:41;;;;;;;1.05;0.50;;;24.20;43.80;;;;;;5073476;28;20585;-56
2022/11/23 00:26:14;;;;;;;1.00;0.52;;;24.20;43.80;;;;;;5070847;28;20675;-47
2022/11/23 00:28:45;;;;;;;0.55;0.47;;;24.20;43.80;;;;;;5071828;28;20597;-49
2022/11/23 00:31:18;;;;;;;2.03;0.60;;;24.30;43.60;;;;;;5051629;28;20199;-48
2022/11/23 00:33:52;;;;;;;1.00;0.50;;;24.30;43.60;;;;;;5091283;28;20272;-50
2022/11/23 00:36:23;;;;;;;1.58;0.65;;;24.30;43.50;;;;;;5084053;28;20194;-51
2022/11/23 00:38:56;;;;;;;0.95;0.60;;;24.30;43.30;;;;;;5051588;28;20195;-50
2022/11/23 00:41:29;;;;;;;0.75;0.40;;;24.30;43.20;;;;;;5065648;28;20666;-48
2022/11/23 00:44:00;;;;;;;1.50;0.50;;;24.30;43.10;;;;;;5071257;28;20215;-50
2022/11/23 00:46:31;;;;;;;1.45;0.30;;;24.30;42.90;;;;;;5071752;28;20199;-56
2022/11/23 00:49:01;;;;;;;2.28;0.50;;;24.30;42.50;;;;;;5059539;28;20199;-49
2022/11/23 00:51:34;;;;;;;1.23;0.60;;;24.30;42.30;;;;;;5073556;28;20201;-50
2022/11/23 00:54:06;;;;;;;1.35;0.68;;;24.30;42.20;;;;;;5050641;28;20590;-48
2022/11/23 00:56:39;;;;;;;0.93;0.40;;;24.30;42.00;;;;;;5051873;28;20203;-49
2022/11/23 00:59:10;;;;;;;0.85;0.32;;;24.40;41.90;;;;;;5068070;28;20202;-50
2022/11/23 01:01:41;;;;;;;2.13;0.50;;;24.40;42.00;;;;;;5064078;28;20202;-50
2022/11/23 01:04:12;;;;;;;1.25;0.50;;;24.40;42.10;;;;;;5070570;28;20689;-50
2022/11/23 01:06:44;;;;;;;1.25;0.30;;;24.40;42.10;;;;;;5071723;28;20276;-59
2022/11/23 01:09:17;;;;;;;1.27;0.40;;;24.40;42.20;;;;;;5081165;28;20222;-53
2022/11/23 01:11:49;;;;;;;1.52;0.40;;;24.40;42.00;;;;;;5061720;28;20203;-56
2022/11/23 01:14:21;;;;;;;1.73;0.70;;;24.40;42.00;;;;;;5070366;28;20223;-62
2022/11/23 01:16:52;;;;;;;0.60;0.40;;;24.40;41.50;;;;;;5070777;28;20195;-51
2022/11/23 01:19:23;;;;;;;0.43;0.40;;;24.40;41.60;;;;;;5071832;28;20210;-47
2022/11/23 01:21:53;;;;;;;1.95;0.73;;;24.50;41.60;;;;;;5070408;28;20203;-51
2022/11/23 01:24:25;;;;;;;1.92;0.77;;;24.50;41.30;;;;;;5070345;28;20238;-57
2022/11/23 01:26:58;;;;;;;2.20;0.90;;;24.50;41.00;;;;;;5071002;28;20209;-55
2022/11/23 01:29:28;;;;;;;2.22;1.35;;;24.50;40.70;;;;;;5065001;28;20223;-49
2022/11/23 01:31:59;;;;;;;2.97;0.90;;;24.50;40.60;;;;;;5057968;28;20565;-49
2022/11/23 01:34:30;;;;;;;2.13;1.02;;;24.50;40.40;;;;;;5070762;28;20218;-50
2022/11/23 01:37:01;;;;;;;1.95;0.80;;;24.50;40.30;;;;;;5060436;28;20202;-50
2022/11/23 01:39:31;;;;;;;1.80;0.82;;;24.50;40.50;;;;;;5091696;28;20213;-50
2022/11/23 01:42:06;;;;;;;0.70;0.70;;;24.50;40.50;;;;;;5090805;28;20198;-51
2022/11/23 01:44:38;;;;;;;1.95;1.00;;;24.50;40.50;;;;;;5089757;28;20216;-54
2022/11/23 01:47:10;;;;;;;1.40;0.93;;;24.60;40.60;;;;;;5090252;28;20206;-58
2022/11/23 01:49:44;;;;;;;2.83;0.90;;;24.60;40.20;;;;;;5080099;28;20210;-50
2022/11/23 01:52:17;;;;;;;1.80;0.80;;;24.60;40.20;;;;;;5052800;28;20278;-54
2022/11/23 01:54:51;;;;;;;2.05;0.75;;;24.60;39.90;;;;;;5050251;28;20203;-53
2022/11/23 01:57:27;;;;;;;1.13;0.70;;;24.60;40.30;;;;;;5054503;28;20197;-47
2022/11/23 01:59:59;;;;;;;2.78;0.82;;;24.60;40.40;;;;;;5060995;28;20663;-53
2022/11/23 02:02:32;;;;;;;1.48;0.80;;;24.60;40.30;;;;;;5052738;28;20198;-55
2022/11/23 02:05:03;;;;;;;2.42;0.73;;;24.60;40.20;;;;;;5065893;28;20199;-52
2022/11/23 02:07:36;;;;;;;0.93;0.60;;;24.60;39.90;;;;;;5071038;28;20187;-53
2022/11/23 02:10:08;;;;;;;2.65;1.15;;;24.60;39.80;;;;;;5070094;28;20234;-48
2022/11/23 02:12:40;;;;;;;1.05;0.70;;;24.60;39.60;;;;;;5069622;28;20194;-54
2022/11/23 02:15:11;;;;;;;1.35;0.60;;;24.60;39.60;;;;;;5060410;28;20218;-61
2022/11/23 02:17:42;;;;;;;3.67;0.50;;;24.70;39.80;;;;;;5055522;28;20183;-52
2022/11/23 02:20:15;;;;;;;1.75;0.70;;;24.70;39.40;;;;;;5070711;28;20650;-55
2022/11/23 02:22:58;;;;;;;0.80;0.60;;;24.70;39.30;;;;;;5070141;28;20214;-50
2022/11/23 02:25:36;;;;;;;1.45;0.80;;;24.70;38.90;;;;;;5072151;28;20207;-49
2022/11/23 02:28:09;;;;;;;0.90;0.70;;;24.70;39.20;;;;;;5073887;28;20195;-55
2022/11/23 02:30:41;;;;;;;1.45;0.73;;;24.70;39.00;;;;;;5059103;28;20591;-51
2022/11/23 02:33:12;;;;;;;1.25;0.60;;;24.70;38.60;;;;;;5062256;28;20210;-49
2022/11/23 02:35:51;;;;;;;1.38;0.63;;;24.70;39.30;;;;;;5072406;28;20566;-48
2022/11/23 02:38:23;;;;;;;2.15;0.80;;;24.70;39.40;;;;;;5064640;28;20197;-50
2022/11/23 02:40:54;;;;;;;1.27;0.70;;;24.70;39.30;;;;;;5052426;28;20213;-52
2022/11/23 02:43:26;;;;;;;2.22;0.60;;;24.70;39.40;;;;;;5053760;28;20226;-57
2022/11/23 02:45:59;;;;;;;0.80;0.50;;;24.70;39.30;;;;;;5068632;28;20206;-61
2022/11/23 02:48:30;;;;;;;1.00;0.63;;;24.70;39.20;;;;;;5075894;28;20209;-52
2022/11/23 02:51:01;;;;;;;1.52;0.50;;;24.80;39.20;;;;;;5073348;28;20223;-53
2022/11/23 02:53:31;;;;;;;1.05;0.60;;;24.80;39.20;;;;;;5074246;28;20211;-54
2022/11/23 02:56:02;;;;;;;0.63;0.43;;;24.80;39.20;;;;;;5073278;28;20206;-56
2022/11/23 02:58:35;;;;;;;0.95;0.50;;;24.80;39.20;;;;;;5073713;28;20195;-56
2022/11/23 03:01:06;;;;;;;1.13;0.60;;;24.80;39.20;;;;;;5056779;28;20199;-50
2022/11/23 03:03:37;;;;;;;1.70;0.90;;;24.90;39.30;;;;;;5073391;28;20295;-53
2022/11/23 03:06:07;;;;;;;1.30;0.63;;;24.90;39.30;;;;;;5073449;28;20566;-49
2022/11/23 03:08:38;;;;;;;1.77;0.60;;;24.90;39.30;;;;;;5076505;28;20195;-49
2022/11/23 03:11:09;;;;;;;1.63;0.68;;;24.90;39.30;;;;;;5093982;28;20233;-48
2022/11/23 03:13:41;;;;;;;1.88;0.77;;;25.00;39.20;;;;;;5082692;28;20221;-50
2022/11/23 03:16:13;;;;;;;1.80;0.60;;;25.00;39.20;;;;;;5073802;28;20199;-55
2022/11/23 03:18:45;;;;;;;1.52;0.60;;;25.00;39.20;;;;;;5073712;28;20195;-52
2022/11/23 03:21:16;;;;;;;1.70;0.50;;;25.10;39.20;;;;;;5065866;28;20208;-51
2022/11/23 03:23:46;;;;;;;1.25;0.60;;;25.10;39.10;;;;;;5073348;28;20215;-60
2022/11/23 03:26:20;;;;;;;1.63;0.77;;;25.10;39.10;;;;;;5061352;28;20206;-51
2022/11/23 03:28:53;;;;;;;1.33;0.60;;;25.20;39.10;;;;;;5082606;28;20221;-55
2022/11/23 03:31:24;;;;;;;1.17;0.60;;;25.20;39.00;;;;;;5052575;28;20226;-51
2022/11/23 03:33:55;;;;;;;1.60;0.57;;;25.30;39.20;;;;;;5063799;28;20206;-51
2022/11/23 03:36:26;;;;;;;1.33;0.60;;;25.30;39.10;;;;;;5057601;28;20192;-52
2022/11/23 03:38:56;;;;;;;1.75;0.60;;;25.30;39.20;;;;;;5063090;28;20191;-48
2022/11/23 03:41:27;;;;;;;1.15;0.50;;;25.40;39.30;;;;;;5071976;28;20198;-54
2022/11/23 03:44:00;;;;;;;2.28;0.75;;;25.40;39.20;;;;;;5072388;28;20206;-49
2022/11/23 03:46:31;;;;;;;1.45;0.63;;;25.40;37.70;;;;;;5072771;28;20203;-53
2022/11/23 03:49:02;;;;;;;2.70;0.80;;;25.40;36.60;;;;;;5072676;28;20202;-59
2022/11/23 03:51:32;;;;;;;3.63;0.88;;;25.40;36.00;;;;;;5072874;28;20238;-48
2022/11/23 03:54:03;;;;;;;0.95;0.60;;;25.40;36.30;;;;;;5072477;28;20211;-54
2022/11/23 03:56:34;;;;;;;2.97;1.20;;;25.40;36.80;;;;;;5065687;28;20667;-53
2022/11/23 03:59:06;;;;;;;3.65;1.50;;;25.40;36.90;;;;;;5066652;28;20187;-50
2022/11/23 04:01:37;;;;;;;43.17;13.85;;;25.40;37.10;;;;;;5052149;28;20230;-51
2022/11/23 04:04:08;;;;;;;26.50;9.02;;;25.40;36.60;;;;;;5062204;28;20207;-50
2022/11/23 04:06:39;;;;;;;10.82;4.82;;;25.40;36.10;;;;;;5067352;28;20192;-57
2022/11/23 04:09:10;;;;;;;11.27;4.10;;;25.40;35.70;;;;;;5053902;28;20203;-56
2022/11/23 04:11:41;;;;;;;6.15;2.60;;;25.40;35.40;;;;;;5052354;28;20226;-56
2022/11/23 04:14:13;;;;;;;6.25;2.28;;;25.40;35.30;;;;;;5073769;28;20237;-55
2022/11/23 04:16:44;;;;;;;7.22;2.38;;;25.40;35.20;;;;;;5092249;28;20201;-60
2022/11/23 04:19:15;;;;;;;7.70;2.35;;;25.30;35.10;;;;;;5091368;28;20186;-58
2022/11/23 04:21:45;;;;;;;5.53;1.48;;;25.30;35.00;;;;;;5091872;28;20190;-59
2022/11/23 04:24:16;;;;;;;3.67;1.40;;;25.30;34.80;;;;;;5092050;28;20209;-59
2022/11/23 04:26:47;;;;;;;3.13;1.17;;;25.30;34.70;;;;;;5092066;28;20637;-53
2022/11/23 04:29:20;;;;;;;4.53;1.40;;;25.20;34.60;;;;;;5084980;28;20206;-53
2022/11/23 04:31:50;;;;;;;4.72;1.50;;;25.20;34.50;;;;;;5051793;28;20694;-51
2022/11/23 04:34:21;;;;;;;3.17;1.10;;;25.20;34.40;;;;;;5062966;28;20218;-48
2022/11/23 04:36:52;;;;;;;1.98;0.98;;;25.20;34.30;;;;;;5060971;28;20191;-48
2022/11/23 04:39:23;;;;;;;4.18;0.70;;;25.10;34.10;;;;;;5063597;28;20666;-47
2022/11/23 04:41:53;;;;;;;2.13;0.77;;;25.10;33.90;;;;;;5072074;28;20191;-53
2022/11/23 04:44:26;;;;;;;1.75;0.70;;;25.10;33.90;;;;;;5084382;28;20229;-48
2022/11/23 04:46:57;;;;;;;1.67;0.68;;;25.00;33.80;;;;;;5091071;28;20194;-53
2022/11/23 04:49:28;;;;;;;3.05;0.70;;;25.00;33.80;;;;;;5080004;28;20653;-51
2022/11/23 04:51:58;;;;;;;2.55;0.57;;;24.90;33.90;;;;;;5071401;28;20226;-51
2022/11/23 04:54:29;;;;;;;1.75;0.63;;;24.90;34.00;;;;;;5071075;28;20210;-51
2022/11/23 04:57:00;;;;;;;4.80;1.05;;;24.90;34.10;;;;;;5071580;28;20207;-54
2022/11/23 04:59:32;;;;;;;2.08;0.57;;;24.90;34.20;;;;;;5065230;28;20191;-50
2022/11/23 05:02:03;;;;;;;1.27;0.60;;;24.80;34.20;;;;;;5051863;28;20222;-48
2022/11/23 05:04:35;;;;;;;2.80;0.70;;;24.80;34.50;;;;;;5062286;28;20222;-53
2022/11/23 05:07:06;;;;;;;2.40;0.80;;;24.80;34.60;;;;;;5072422;28;20203;-52
2022/11/23 05:09:36;;;;;;;2.33;0.80;;;24.80;34.80;;;;;;5071641;28;20210;-53
2022/11/23 05:12:07;;;;;;;1.55;0.60;;;24.80;35.00;;;;;;5070774;28;20709;-51
2022/11/23 05:14:41;;;;;;;3.72;0.80;;;24.80;34.90;;;;;;5070621;28;20701;-48
2022/11/23 05:17:12;;;;;;;2.72;0.75;;;24.80;34.90;;;;;;5071297;28;20209;-49
2022/11/23 05:19:44;;;;;;;3.83;1.00;;;24.80;34.80;;;;;;5071637;28;20195;-57
2022/11/23 05:22:14;;;;;;;3.58;1.15;;;24.70;34.60;;;;;;5071113;28;20263;-56
2022/11/23 05:24:45;;;;;;;1.83;0.90;;;24.70;34.50;;;;;;5071760;28;20294;-52
2022/11/23 05:27:19;;;;;;;2.75;0.80;;;24.70;34.50;;;;;;5071254;28;20198;-53
2022/11/23 05:29:52;;;;;;;2.92;1.00;;;24.70;34.50;;;;;;5065170;28;20206;-61
2022/11/23 05:32:23;;;;;;;3.25;1.00;;;24.70;34.50;;;;;;5091151;28;20221;-49
2022/11/23 05:34:54;;;;;;;2.58;1.02;;;24.60;34.40;;;;;;5091348;28;20190;-55
2022/11/23 05:37:25;;;;;;;4.22;1.17;;;24.60;34.40;;;;;;5091337;28;20201;-57
2022/11/23 05:39:56;;;;;;;1.95;1.10;;;24.60;34.70;;;;;;5091511;28;20197;-54
2022/11/23 05:42:27;;;;;;;2.00;0.90;;;24.60;34.80;;;;;;5091389;28;20202;-52
2022/11/23 05:44:59;;;;;;;2.50;1.20;;;24.60;35.00;;;;;;5091044;28;20205;-51
2022/11/23 05:47:30;;;;;;;3.25;1.00;;;24.60;35.20;;;;;;5091510;28;20198;-51
2022/11/23 05:50:01;;;;;;;2.10;0.90;;;24.60;35.40;;;;;;5091618;28;20205;-48
2022/11/23 05:52:31;;;;;;;5.70;1.10;;;24.60;35.50;;;;;;5090940;28;20221;-56
2022/11/23 05:55:02;;;;;;;2.30;0.90;;;24.60;35.60;;;;;;5091162;28;20564;-55
2022/11/23 05:57:33;;;;;;;4.78;1.00;;;24.60;35.40;;;;;;5072898;28;20198;-54
2022/11/23 06:00:09;;;;;;;2.25;0.95;;;24.50;35.40;;;;;;5050488;28;20207;-58
2022/11/23 06:02:40;;;;;;;2.67;0.93;;;24.60;35.30;;;;;;5050964;28;20229;-53
2022/11/23 06:05:11;;;;;;;5.70;1.30;;;24.50;35.30;;;;;;5050897;28;20191;-53
2022/11/23 06:07:42;;;;;;;2.95;1.10;;;24.50;35.30;;;;;;5051382;28;20196;-53
2022/11/23 06:10:14;;;;;;;3.75;0.85;;;24.60;35.30;;;;;;5051023;28;20199;-54
2022/11/23 06:12:45;;;;;;;3.63;1.10;;;24.50;34.90;;;;;;5052006;28;20324;-52
2022/11/23 06:15:18;;;;;;;2.67;0.82;;;24.50;34.90;;;;;;5070658;28;20195;-58
2022/11/23 06:17:48;;;;;;;3.65;1.20;;;24.50;35.00;;;;;;5070911;28;20202;-58
2022/11/23 06:20:19;;;;;;;2.90;1.15;;;24.50;35.30;;;;;;5070643;28;20642;-63
2022/11/23 06:22:55;;;;;;;2.42;1.40;;;24.50;35.40;;;;;;5070663;28;20550;-57
2022/11/23 06:25:26;;;;;;;2.08;0.85;;;24.50;35.50;;;;;;5071215;28;20194;-61
2022/11/23 06:27:58;;;;;;;2.63;0.98;;;24.50;35.50;;;;;;5070868;28;20191;-59
2022/11/23 06:30:31;;;;;;;3.85;1.00;;;24.50;35.60;;;;;;5057284;28;20203;-51
2022/11/23 06:33:05;;;;;;;4.90;1.15;;;24.50;35.40;;;;;;5050637;28;20223;-62
2022/11/23 06:35:36;;;;;;;4.28;1.00;;;24.50;35.40;;;;;;5051124;28;20196;-55
2022/11/23 06:38:07;;;;;;;2.75;1.13;;;24.50;35.30;;;;;;5050639;28;20208;-63
2022/11/23 06:40:38;;;;;;;2.97;1.00;;;24.50;35.30;;;;;;5050702;28;20199;-58
2022/11/23 06:43:09;;;;;;;3.63;1.20;;;24.50;35.50;;;;;;5055489;28;20299;-57
2022/11/23 06:45:44;;;;;;;4.00;1.02;;;24.50;35.60;;;;;;5070495;28;20194;-62
2022/11/23 06:48:15;;;;;;;2.63;0.98;;;24.50;35.60;;;;;;5070441;28;20203;-53
2022/11/23 06:50:45;;;;;;;2.35;0.98;;;24.50;35.70;;;;;;5070347;28;20198;-58
2022/11/23 06:53:16;;;;;;;2.55;1.00;;;24.50;35.80;;;;;;5070384;28;20229;-60
2022/11/23 06:55:47;;;;;;;3.08;1.20;;;24.50;35.70;;;;;;5070223;28;20194;-62
2022/11/23 06:58:18;;;;;;;2.38;0.93;;;24.50;35.80;;;;;;5070777;28;20201;-57
2022/11/23 07:00:50;;;;;;;3.30;1.10;;;24.50;35.80;;;;;;5053979;28;20204;-62
2022/11/23 07:03:22;;;;;;;2.05;0.80;;;24.60;35.90;;;;;;5050277;28;21014;-60
2022/11/23 07:05:53;;;;;;;2.42;0.80;;;24.50;35.90;;;;;;5050391;28;20292;-59
2022/11/23 07:08:24;;;;;;;2.00;0.80;;;24.50;36.10;;;;;;5050506;28;20562;-56
2022/11/23 07:10:55;;;;;;;2.88;1.25;;;24.60;36.20;;;;;;5051190;28;20298;-60
2022/11/23 07:13:26;;;;;;;2.10;0.88;;;24.50;36.00;;;;;;5054329;28;20223;-59
2022/11/23 07:16:00;;;;;;;3.95;1.05;;;24.60;36.10;;;;;;5053982;28;20203;-63
2022/11/23 07:18:31;;;;;;;2.67;0.98;;;24.50;36.10;;;;;;5053607;28;20191;-60
2022/11/23 07:21:02;;;;;;;2.13;0.63;;;24.50;36.20;;;;;;5053692;28;20211;-59
2022/11/23 07:23:32;;;;;;;2.97;1.20;;;24.50;36.20;;;;;;5053442;28;20219;-62
2022/11/23 07:26:05;;;;;;;2.90;1.30;;;24.50;36.20;;;;;;5053380;28;20555;-63
2022/11/23 07:28:36;;;;;;;3.13;1.13;;;24.50;36.30;;;;;;5053553;28;20207;-59
2022/11/23 07:31:09;;;;;;;3.08;1.20;;;24.50;36.40;;;;;;5053015;28;20203;-59
2022/11/23 07:33:40;;;;;;;4.38;1.75;;;24.50;37.10;;;;;;5053227;28;20227;-60
2022/11/23 07:36:11;;;;;;;4.15;1.35;;;24.50;36.60;;;;;;5053475;28;20203;-57
2022/11/23 07:38:42;;;;;;;4.13;1.70;;;24.50;36.70;;;;;;5053424;28;20202;-57
2022/11/23 07:41:13;;;;;;;2.90;1.60;;;24.50;36.90;;;;;;5053779;28;20196;-59
2022/11/23 07:43:46;;;;;;;3.60;1.52;;;24.50;36.90;;;;;;5053749;28;20231;-57
2022/11/23 07:46:19;;;;;;;2.63;1.13;;;24.50;36.90;;;;;;5053602;28;20252;-57
2022/11/23 07:48:50;;;;;;;2.50;1.33;;;24.50;37.00;;;;;;5053112;28;20198;-60
2022/11/23 07:51:21;;;;;;;3.55;1.50;;;24.40;36.90;;;;;;5053151;28;20226;-62
2022/11/23 07:53:52;;;;;;;2.60;1.45;;;24.40;36.90;;;;;;5053247;28;20215;-59
2022/11/23 07:56:22;;;;;;;3.33;1.50;;;24.40;37.00;;;;;;5052888;28;20215;-63
2022/11/23 07:58:53;;;;;;;5.32;1.85;;;24.40;37.00;;;;;;5052993;28;20195;-63
2022/11/23 08:01:26;;;;;;;3.05;1.35;;;24.40;37.10;;;;;;5056985;28;20266;-60
2022/11/23 08:03:56;;;;;;;3.03;1.70;;;24.30;37.10;;;;;;5073232;28;20219;-62
2022/11/23 08:06:27;;;;;;;1.77;1.25;;;24.30;37.10;;;;;;5073390;28;20198;-57
2022/11/23 08:08:58;;;;;;;3.38;1.38;;;24.30;37.20;;;;;;5073027;28;20195;-59
2022/11/23 08:11:28;;;;;;;2.75;1.30;;;24.30;37.40;;;;;;5073633;28;20256;-60
2022/11/23 08:13:59;;;;;;;3.17;1.42;;;24.30;37.40;;;;;;5069705;28;20211;-61
2022/11/23 08:16:32;;;;;;;2.92;1.52;;;24.30;37.40;;;;;;5072795;28;20190;-62
2022/11/23 08:19:02;;;;;;;2.08;1.33;;;24.20;37.40;;;;;;5072806;28;20199;-49
2022/11/23 08:21:33;;;;;;;2.55;1.38;;;24.20;37.50;;;;;;5072507;28;20206;-57
2022/11/23 08:24:04;;;;;;;3.20;1.40;;;24.20;37.60;;;;;;5071679;28;20580;-57
2022/11/23 08:26:35;;;;;;;2.97;1.23;;;24.20;37.60;;;;;;5072546;28;20198;-55
2022/11/23 08:29:06;;;;;;;3.42;1.40;;;24.20;37.60;;;;;;5071022;28;20197;-49
2022/11/23 08:31:38;;;;;;;2.75;1.40;;;24.20;37.70;;;;;;5052640;28;20555;-53
2022/11/23 08:34:09;;;;;;;2.50;1.23;;;24.10;37.80;;;;;;5052457;28;20222;-60
2022/11/23 08:36:40;;;;;;;1.73;0.93;;;24.10;37.80;;;;;;5052777;28;20597;-52
2022/11/23 08:39:13;;;;;;;2.40;1.30;;;24.10;37.90;;;;;;5052871;28;20192;-59
2022/11/23 08:41:44;;;;;;;2.50;1.45;;;24.10;37.90;;;;;;5052763;28;20579;-57
2022/11/23 08:44:15;;;;;;;4.70;1.30;;;24.00;37.90;;;;;;5066659;28;20207;-60
2022/11/23 08:46:47;;;;;;;2.22;1.10;;;24.00;38.00;;;;;;5072548;28;20213;-56
2022/11/23 08:49:18;;;;;;;2.85;1.08;;;24.00;38.10;;;;;;5072377;28;20207;-53
2022/11/23 08:51:49;;;;;;;2.83;0.95;;;24.00;38.10;;;;;;5072289;28;20218;-49
2022/11/23 08:54:19;;;;;;;3.08;1.42;;;23.90;38.10;;;;;;5072274;28;20261;-52
2022/11/23 08:56:50;;;;;;;2.63;1.20;;;23.90;38.20;;;;;;5071992;28;20569;-53
2022/11/23 08:59:21;;;;;;;2.83;1.48;;;23.90;38.30;;;;;;5063362;28;20191;-59
2022/11/23 09:01:53;;;;;;;1.75;1.02;;;23.90;38.20;;;;;;5052000;28;20210;-56
2022/11/23 09:04:26;;;;;;;1.98;1.00;;;23.90;38.30;;;;;;5061013;28;20225;-61
2022/11/23 09:06:57;;;;;;;2.13;0.98;;;23.80;38.30;;;;;;5051298;28;20253;-60
2022/11/23 09:09:27;;;;;;;2.45;1.27;;;23.80;38.40;;;;;;5061827;28;20195;-55
2022/11/23 09:11:58;;;;;;;3.20;1.00;;;23.80;38.40;;;;;;5071107;28;20312;-57
2022/11/23 09:14:29;;;;;;;1.40;0.95;;;23.80;38.60;;;;;;5071343;28;20245;-57
2022/11/23 09:17:04;;;;;;;3.60;0.90;;;23.70;38.50;;;;;;5067763;28;20195;-51
2022/11/23 09:19:35;;;;;;;3.20;1.15;;;23.70;38.60;;;;;;5062702;28;20198;-59
2022/11/23 09:22:05;;;;;;;3.30;1.25;;;23.70;38.60;;;;;;5071120;28;20195;-59
2022/11/23 09:24:36;;;;;;;1.77;1.10;;;23.60;38.60;;;;;;5066483;28;20226;-62
2022/11/23 09:27:07;;;;;;;2.03;0.90;;;23.60;38.60;;;;;;5051192;28;20199;-54
2022/11/23 09:29:38;;;;;;;2.80;0.90;;;23.60;38.60;;;;;;5055013;28;20711;-61
2022/11/23 09:32:10;;;;;;;2.15;0.95;;;23.60;38.60;;;;;;5051570;28;20230;-52
2022/11/23 09:34:41;;;;;;;2.75;1.05;;;23.60;38.70;;;;;;5061568;28;20210;-62
2022/11/23 09:37:12;;;;;;;3.45;0.90;;;23.60;38.80;;;;;;5071055;28;20596;-63
2022/11/23 09:39:43;;;;;;;4.78;1.13;;;23.50;38.80;;;;;;5070633;28;20195;-63
2022/11/23 09:42:55;;;;;;;2.58;1.00;;;23.50;38.80;;;;;;5071241;28;20199;-55
2022/11/23 09:45:32;;;;;;;2.63;1.10;;;23.50;39.00;;;;;;5070668;28;20201;-51
2022/11/23 09:48:27;;;;;;;2.20;1.10;;;23.50;39.00;;;;;;5070207;28;20202;-53
2022/11/23 09:51:04;;;;;;;1.45;0.82;;;23.40;39.00;;;;;;5089478;28;20197;-52
2022/11/23 09:53:37;;;;;;;3.13;0.95;;;23.40;39.10;;;;;;5054380;28;20286;-64
2022/11/23 09:56:14;;;;;;;2.00;0.85;;;23.40;39.20;;;;;;5070757;28;20558;-61
2022/11/23 09:58:45;;;;;;;1.88;0.93;;;23.30;39.20;;;;;;5070418;28;20190;-56
2022/11/23 10:01:17;;;;;;;2.00;0.85;;;23.30;39.30;;;;;;5050346;28;20647;-60
2022/11/23 10:03:50;;;;;;;1.65;0.90;;;23.20;39.30;;;;;;5053639;28;20214;-62
2022/11/23 10:06:24;;;;;;;2.10;1.02;;;23.30;39.40;;;;;;5051185;28;20515;-61
2022/11/23 10:09:07;;;;;;;1.27;0.93;;;23.20;39.40;;;;;;5053381;28;20721;-53
2022/11/23 10:12:17;;;;;;;1.85;0.85;;;23.20;39.40;;;;;;5071311;28;20240;-57
2022/11/23 10:15:00;;;;;;;1.27;0.63;;;23.20;39.40;;;;;;5069281;28;20244;-66
2022/11/23 10:17:51;;;;;;;2.08;0.80;;;23.20;39.40;;;;;;5070073;28;20209;-57
2022/11/23 10:20:52;;;;;;;2.33;0.98;;;23.20;39.50;;;;;;5070005;28;20191;-59
2022/11/23 10:23:47;;;;;;;0.90;0.65;;;23.10;39.50;;;;;;5066952;28;20218;-58
2022/11/23 10:26:20;;;;;;;0.80;0.70;;;23.10;39.60;;;;;;5070321;28;20195;-52
2022/11/23 10:28:51;;;;;;;1.00;0.73;;;23.10;39.60;;;;;;5070729;28;20218;-52
2022/11/23 10:31:23;;;;;;;2.42;1.00;;;23.00;39.70;;;;;;5050784;28;20191;-55
2022/11/23 10:34:04;;;;;;;3.50;0.90;;;23.00;39.70;;;;;;5050484;28;20622;-54
2022/11/23 10:36:38;;;;;;;1.85;0.82;;;23.00;39.90;;;;;;5050893;28;20195;-52
2022/11/23 10:39:18;;;;;;;2.75;1.15;;;22.90;39.90;;;;;;5050802;28;20199;-53
2022/11/23 10:41:49;;;;;;;1.98;0.90;;;22.90;39.90;;;;;;5050807;28;20199;-57
2022/11/23 10:44:37;;;;;;;1.92;0.95;;;22.90;39.90;;;;;;5057611;28;20218;-54
2022/11/23 10:47:08;;;;;;;3.17;1.15;;;22.90;39.90;;;;;;5052740;28;20196;-51
2022/11/23 10:49:39;;;;;;;1.90;1.05;;;22.90;39.90;;;;;;5054811;28;20223;-51
2022/11/23 10:52:30;;;;;;;1.38;0.88;;;22.90;40.00;;;;;;5054769;28;20203;-54
2022/11/23 10:55:03;;;;;;;4.22;1.10;;;22.90;40.00;;;;;;5054484;28;20199;-50
2022/11/23 10:57:35;;;;;;;1.48;0.63;;;22.90;40.10;;;;;;5054278;28;20196;-54
2022/11/23 11:00:16;;;;;;;2.15;0.90;;;22.80;40.10;;;;;;5054314;28;20199;-52
2022/11/23 11:02:48;;;;;;;2.55;0.80;;;22.80;40.20;;;;;;5054423;28;20622;-54
2022/11/23 11:05:30;;;;;;;1.77;0.70;;;22.80;40.20;;;;;;5054426;28;20195;-53
2022/11/23 11:08:04;;;;;;;2.13;0.80;;;22.70;40.20;;;;;;5053892;28;20669;-52
2022/11/23 11:10:43;;;;;;;4.03;1.20;;;22.70;40.30;;;;;;5054455;28;20202;-56
2022/11/23 11:13:28;;;;;;;1.73;0.80;;;22.70;40.40;;;;;;5054213;28;20238;-50
2022/11/23 11:16:01;;;;;;;1.58;0.80;;;22.60;40.40;;;;;;5054073;28;20663;-56
2022/11/23 11:18:34;;;;;;;1.65;0.80;;;22.60;40.40;;;;;;5054126;28;20202;-52
2022/11/23 11:21:07;;;;;;;1.58;0.70;;;22.60;41.10;;;;;;5054063;28;20203;-55
2022/11/23 11:23:43;;;;;;;2.30;0.73;;;22.60;40.40;;;;;;5054091;28;20226;-57
2022/11/23 11:26:23;;;;;;;1.75;0.60;;;22.60;40.50;;;;;;5053471;28;20674;-52
2022/11/23 11:28:55;;;;;;;1.98;0.80;;;22.60;40.50;;;;;;5053392;28;20202;-55
2022/11/23 11:31:38;;;;;;;1.63;0.80;;;22.60;40.50;;;;;;5053929;28;20192;-57
2022/11/23 11:34:26;;;;;;;2.60;1.00;;;22.50;40.50;;;;;;5053547;28;20235;-57
2022/11/23 11:37:07;;;;;;;1.58;0.80;;;22.50;40.60;;;;;;5053677;28;20195;-59
2022/11/23 11:39:46;;;;;;;1.52;0.90;;;22.40;40.60;;;;;;5053583;28;20560;-57
2022/11/23 11:42:21;;;;;;;1.85;0.95;;;22.40;40.70;;;;;;5054003;28;20210;-54
2022/11/23 11:44:56;;;;;;;1.63;0.80;;;22.40;40.80;;;;;;5053666;28;20205;-57
2022/11/23 11:47:32;;;;;;;1.63;0.73;;;22.40;40.80;;;;;;5053568;28;20277;-57
2022/11/23 11:50:09;;;;;;;2.08;0.90;;;22.40;40.90;;;;;;5053203;28;20195;-55
2022/11/23 11:52:42;;;;;;;1.08;0.70;;;22.30;40.90;;;;;;5053133;28;20246;-53
2022/11/23 11:55:21;;;;;;;2.15;0.90;;;22.30;41.00;;;;;;5067227;28;20506;-56
2022/11/23 11:57:57;;;;;;;1.25;0.77;;;22.30;41.00;;;;;;5072408;28;20198;-49
2022/11/23 12:00:29;;;;;;;2.00;0.60;;;22.30;41.00;;;;;;5059799;28;20199;-55
2022/11/23 12:03:08;;;;;;;1.17;0.80;;;22.30;41.00;;;;;;5055622;28;20220;-60
2022/11/23 12:05:46;;;;;;;1.17;0.73;;;22.20;41.00;;;;;;5053366;28;20556;-57
2022/11/23 12:08:21;;;;;;;2.05;0.95;;;22.20;41.00;;;;;;5053429;28;20709;-56
2022/11/23 12:10:56;;;;;;;1.10;0.60;;;22.20;41.10;;;;;;5053990;28;20197;-59
2022/11/23 12:13:30;;;;;;;1.20;0.80;;;22.20;41.20;;;;;;5052950;28;20694;-59
2022/11/23 12:16:10;;;;;;;2.28;0.98;;;22.10;41.20;;;;;;5052874;28;20199;-60
2022/11/23 12:19:02;;;;;;;1.25;0.93;;;22.10;41.20;;;;;;5053280;28;20558;-58
2022/11/23 12:22:04;;;;;;;1.52;0.70;;;22.10;41.30;;;;;;5052235;28;20195;-57
2022/11/23 12:24:49;;;;;;;0.80;0.50;;;22.10;41.30;;;;;;5053220;28;20215;-58
2022/11/23 12:27:27;;;;;;;1.95;0.70;;;22.00;41.30;;;;;;5052464;28;20580;-53
2022/11/23 12:30:26;;;;;;;2.15;0.80;;;22.00;41.30;;;;;;5052490;28;20222;-54
2022/11/23 12:33:19;;;;;;;1.65;0.70;;;22.00;41.40;;;;;;5052724;28;20285;-58
2022/11/23 12:36:02;;;;;;;2.22;0.90;;;22.00;41.40;;;;;;5052770;28;20665;-55
2022/11/23 12:38:37;;;;;;;1.38;0.70;;;21.90;41.40;;;;;;5052934;28;20203;-58
2022/11/23 12:41:22;;;;;;;0.65;0.65;;;21.90;41.40;;;;;;5052860;28;20670;-55
2022/11/23 12:44:31;;;;;;;1.77;0.60;;;21.90;41.50;;;;;;5053978;28;20225;-61
2022/11/23 12:47:08;;;;;;;1.25;0.60;;;21.80;41.50;;;;;;5010151;28;20205;-58
2022/11/23 12:49:45;;;;;;;0.60;0.52;;;21.90;41.50;;;;;;5045658;28;20218;-64
2022/11/23 12:52:40;;;;;;;1.10;0.70;;;21.80;41.50;;;;;;5052324;28;20240;-63
2022/11/23 12:55:24;;;;;;;1.65;0.80;;;21.80;41.50;;;;;;5052356;28;20195;-53
2022/11/23 12:58:02;;;;;;;1.25;0.50;;;21.80;41.60;;;;;;5052226;28;20199;-62
2022/11/23 13:00:39;;;;;;;1.45;0.70;;;21.80;41.60;;;;;;5052009;28;20206;-53
2022/11/23 13:03:48;;;;;;;1.08;0.65;;;21.70;41.50;;;;;;5052192;28;20812;-60
2022/11/23 13:06:50;;;;;;;1.30;0.90;;;21.70;41.50;;;;;;5052040;28;20195;-64
2022/11/23 13:09:31;;;;;;;0.98;0.60;;;21.70;41.50;;;;;;5051716;28;20528;-60
2022/11/23 13:12:18;;;;;;;1.05;0.60;;;21.70;41.60;;;;;;5052605;28;20206;-60
2022/11/23 13:14:58;;;;;;;0.88;0.60;;;21.60;41.50;;;;;;5051626;28;20223;-62
2022/11/23 13:17:41;;;;;;;1.30;0.60;;;21.60;41.50;;;;;;5051501;28;20560;-60
2022/11/23 13:20:30;;;;;;;1.50;0.52;;;21.60;41.50;;;;;;5051755;28;20203;-56